sensor_id;sensor_type;location;lat;lon;timestamp;P1;durP1;ratioP1;P2;durP2;ratioP2
57826;SDS011;43656;57.746;11.780;2023-04-28T00:01:36;10.77;;;1.67;;
57826;SDS011;43656;57.746;11.780;2023-04-28T00:04:02;6.43;;;1.77;;
57826;SDS011;43656;57.746;11.780;2023-04-28T00:06:27;8.00;;;1.52;;
57826;SDS011;43656;57.746;11.780;2023-04-28T00:08:54;7.93;;;1.38;;
57826;SDS011;43656;57.746;11.780;2023-04-28T00:11:20;10.00;;;1.40;;
57826;SDS011;43656;57.746;11.780;2023-04-28T00:13:45;10.48;;;1.58;;
57826;SDS011;43656;57.746;11.780;2023-04-28T00:16:11;6.07;;;1.50;;
57826;SDS011;43656;57.746;11.780;2023-04-28T00:18:36;7.50;;;1.75;;
57826;SDS011;43656;57.746;11.780;2023-04-28T00:21:02;7.25;;;1.52;;
57826;SDS011;43656;57.746;11.780;2023-04-28T00:23:27;4.57;;;1.50;;
57826;SDS011;43656;57.746;11.780;2023-04-28T00:25:53;9.68;;;1.63;;
57826;SDS011;43656;57.746;11.780;2023-04-28T00:28:20;5.25;;;1.33;;
57826;SDS011;43656;57.746;11.780;2023-04-28T00:30:46;13.02;;;1.33;;
57826;SDS011;43656;57.746;11.780;2023-04-28T00:33:11;7.20;;;1.67;;
57826;SDS011;43656;57.746;11.780;2023-04-28T00:35:38;9.95;;;2.08;;
57826;SDS011;43656;57.746;11.780;2023-04-28T00:38:04;12.80;;;2.15;;
57826;SDS011;43656;57.746;11.780;2023-04-28T00:40:33;10.48;;;1.95;;
57826;SDS011;43656;57.746;11.780;2023-04-28T00:43:02;10.88;;;1.90;;
57826;SDS011;43656;57.746;11.780;2023-04-28T00:45:28;14.30;;;1.85;;
57826;SDS011;43656;57.746;11.780;2023-04-28T00:47:54;9.10;;;1.70;;
57826;SDS011;43656;57.746;11.780;2023-04-28T00:50:20;7.15;;;1.80;;
57826;SDS011;43656;57.746;11.780;2023-04-28T00:52:47;7.93;;;1.55;;
57826;SDS011;43656;57.746;11.780;2023-04-28T00:55:13;10.13;;;1.70;;
57826;SDS011;43656;57.746;11.780;2023-04-28T00:57:40;8.63;;;1.80;;
57826;SDS011;43656;57.746;11.780;2023-04-28T01:00:07;8.30;;;1.55;;
57826;SDS011;43656;57.746;11.780;2023-04-28T01:02:34;11.40;;;1.90;;
57826;SDS011;43656;57.746;11.780;2023-04-28T01:05:00;7.80;;;1.95;;
57826;SDS011;43656;57.746;11.780;2023-04-28T01:07:26;7.80;;;1.67;;
57826;SDS011;43656;57.746;11.780;2023-04-28T01:09:52;8.65;;;1.90;;
57826;SDS011;43656;57.746;11.780;2023-04-28T01:12:18;5.78;;;1.30;;
57826;SDS011;43656;57.746;11.780;2023-04-28T01:14:44;9.20;;;1.55;;
57826;SDS011;43656;57.746;11.780;2023-04-28T01:17:10;13.90;;;1.50;;
57826;SDS011;43656;57.746;11.780;2023-04-28T01:19:35;8.40;;;2.28;;
57826;SDS011;43656;57.746;11.780;2023-04-28T01:22:01;8.57;;;1.45;;
57826;SDS011;43656;57.746;11.780;2023-04-28T01:24:26;9.70;;;1.50;;
57826;SDS011;43656;57.746;11.780;2023-04-28T01:26:52;9.38;;;1.80;;
57826;SDS011;43656;57.746;11.780;2023-04-28T01:29:17;5.30;;;1.80;;
57826;SDS011;43656;57.746;11.780;2023-04-28T01:31:43;7.35;;;1.30;;
57826;SDS011;43656;57.746;11.780;2023-04-28T01:34:08;9.00;;;1.42;;
57826;SDS011;43656;57.746;11.780;2023-04-28T01:36:34;7.57;;;1.50;;
57826;SDS011;43656;57.746;11.780;2023-04-28T01:38:59;7.50;;;1.75;;
57826;SDS011;43656;57.746;11.780;2023-04-28T01:41:25;6.80;;;1.33;;
57826;SDS011;43656;57.746;11.780;2023-04-28T01:43:50;9.80;;;1.95;;
57826;SDS011;43656;57.746;11.780;2023-04-28T01:46:16;11.52;;;1.60;;
57826;SDS011;43656;57.746;11.780;2023-04-28T01:48:41;4.22;;;1.13;;
57826;SDS011;43656;57.746;11.780;2023-04-28T01:51:07;7.05;;;1.48;;
57826;SDS011;43656;57.746;11.780;2023-04-28T01:53:32;9.40;;;1.48;;
57826;SDS011;43656;57.746;11.780;2023-04-28T01:55:58;9.00;;;1.48;;
57826;SDS011;43656;57.746;11.780;2023-04-28T01:58:24;10.15;;;1.40;;
57826;SDS011;43656;57.746;11.780;2023-04-28T02:00:50;7.55;;;1.60;;
57826;SDS011;43656;57.746;11.780;2023-04-28T02:03:15;7.20;;;1.50;;
57826;SDS011;43656;57.746;11.780;2023-04-28T02:05:41;9.18;;;1.55;;
57826;SDS011;43656;57.746;11.780;2023-04-28T02:08:06;7.20;;;1.50;;
57826;SDS011;43656;57.746;11.780;2023-04-28T02:10:32;6.80;;;1.83;;
57826;SDS011;43656;57.746;11.780;2023-04-28T02:12:57;13.38;;;1.60;;
57826;SDS011;43656;57.746;11.780;2023-04-28T02:15:22;5.68;;;1.50;;
57826;SDS011;43656;57.746;11.780;2023-04-28T02:17:48;10.90;;;1.60;;
57826;SDS011;43656;57.746;11.780;2023-04-28T02:20:13;7.18;;;1.58;;
57826;SDS011;43656;57.746;11.780;2023-04-28T02:22:39;9.10;;;1.67;;
57826;SDS011;43656;57.746;11.780;2023-04-28T02:25:05;7.65;;;1.88;;
57826;SDS011;43656;57.746;11.780;2023-04-28T02:27:31;12.45;;;1.80;;
57826;SDS011;43656;57.746;11.780;2023-04-28T02:29:57;5.45;;;1.90;;
57826;SDS011;43656;57.746;11.780;2023-04-28T02:32:25;11.73;;;1.83;;
57826;SDS011;43656;57.746;11.780;2023-04-28T02:34:53;6.25;;;1.60;;
57826;SDS011;43656;57.746;11.780;2023-04-28T02:37:19;7.63;;;2.00;;
57826;SDS011;43656;57.746;11.780;2023-04-28T02:39:45;8.27;;;1.58;;
57826;SDS011;43656;57.746;11.780;2023-04-28T02:42:11;9.48;;;1.60;;
57826;SDS011;43656;57.746;11.780;2023-04-28T02:44:36;7.43;;;1.70;;
57826;SDS011;43656;57.746;11.780;2023-04-28T02:47:02;12.95;;;1.50;;
57826;SDS011;43656;57.746;11.780;2023-04-28T02:49:27;9.23;;;1.55;;
57826;SDS011;43656;57.746;11.780;2023-04-28T02:51:53;14.23;;;1.70;;
57826;SDS011;43656;57.746;11.780;2023-04-28T02:54:18;8.80;;;1.80;;
57826;SDS011;43656;57.746;11.780;2023-04-28T02:56:51;5.57;;;1.35;;
57826;SDS011;43656;57.746;11.780;2023-04-28T02:59:22;9.82;;;1.55;;
57826;SDS011;43656;57.746;11.780;2023-04-28T03:01:48;8.77;;;1.52;;
57826;SDS011;43656;57.746;11.780;2023-04-28T03:04:14;3.78;;;1.30;;
57826;SDS011;43656;57.746;11.780;2023-04-28T03:06:40;6.75;;;1.50;;
57826;SDS011;43656;57.746;11.780;2023-04-28T03:09:05;10.52;;;1.52;;
57826;SDS011;43656;57.746;11.780;2023-04-28T03:11:31;5.00;;;1.40;;
57826;SDS011;43656;57.746;11.780;2023-04-28T03:13:57;6.00;;;1.50;;
57826;SDS011;43656;57.746;11.780;2023-04-28T03:16:23;6.90;;;1.77;;
57826;SDS011;43656;57.746;11.780;2023-04-28T03:18:48;3.47;;;1.40;;
57826;SDS011;43656;57.746;11.780;2023-04-28T03:21:14;7.53;;;1.30;;
57826;SDS011;43656;57.746;11.780;2023-04-28T03:23:39;2.97;;;1.30;;
57826;SDS011;43656;57.746;11.780;2023-04-28T03:26:07;10.05;;;1.63;;
57826;SDS011;43656;57.746;11.780;2023-04-28T03:28:33;6.47;;;1.40;;
57826;SDS011;43656;57.746;11.780;2023-04-28T03:30:58;5.85;;;1.30;;
57826;SDS011;43656;57.746;11.780;2023-04-28T03:33:24;4.53;;;1.33;;
57826;SDS011;43656;57.746;11.780;2023-04-28T03:35:49;7.15;;;1.40;;
57826;SDS011;43656;57.746;11.780;2023-04-28T03:38:15;5.18;;;1.30;;
57826;SDS011;43656;57.746;11.780;2023-04-28T03:40:40;3.85;;;1.50;;
57826;SDS011;43656;57.746;11.780;2023-04-28T03:43:06;4.13;;;1.30;;
57826;SDS011;43656;57.746;11.780;2023-04-28T03:45:31;2.92;;;1.17;;
57826;SDS011;43656;57.746;11.780;2023-04-28T03:47:57;4.90;;;1.13;;
57826;SDS011;43656;57.746;11.780;2023-04-28T03:50:23;6.00;;;1.27;;
57826;SDS011;43656;57.746;11.780;2023-04-28T03:52:48;5.20;;;1.33;;
57826;SDS011;43656;57.746;11.780;2023-04-28T03:55:13;3.33;;;1.10;;
57826;SDS011;43656;57.746;11.780;2023-04-28T03:57:39;6.03;;;1.30;;
57826;SDS011;43656;57.746;11.780;2023-04-28T04:00:05;5.45;;;1.30;;
57826;SDS011;43656;57.746;11.780;2023-04-28T04:02:31;3.58;;;1.05;;
57826;SDS011;43656;57.746;11.780;2023-04-28T04:04:57;3.67;;;1.40;;
57826;SDS011;43656;57.746;11.780;2023-04-28T04:07:22;3.60;;;0.95;;
57826;SDS011;43656;57.746;11.780;2023-04-28T04:09:48;3.20;;;1.40;;
57826;SDS011;43656;57.746;11.780;2023-04-28T04:12:13;7.82;;;1.23;;
57826;SDS011;43656;57.746;11.780;2023-04-28T04:14:38;4.47;;;1.23;;
57826;SDS011;43656;57.746;11.780;2023-04-28T04:17:04;1.90;;;0.90;;
57826;SDS011;43656;57.746;11.780;2023-04-28T04:19:30;3.28;;;0.93;;
57826;SDS011;43656;57.746;11.780;2023-04-28T04:21:55;3.55;;;1.00;;
57826;SDS011;43656;57.746;11.780;2023-04-28T04:24:21;2.03;;;0.80;;
57826;SDS011;43656;57.746;11.780;2023-04-28T04:26:46;3.13;;;1.10;;
57826;SDS011;43656;57.746;11.780;2023-04-28T04:29:12;4.72;;;1.00;;
57826;SDS011;43656;57.746;11.780;2023-04-28T04:31:37;4.70;;;0.90;;
57826;SDS011;43656;57.746;11.780;2023-04-28T04:34:03;3.80;;;0.80;;
57826;SDS011;43656;57.746;11.780;2023-04-28T04:36:28;3.55;;;0.70;;
57826;SDS011;43656;57.746;11.780;2023-04-28T04:38:54;3.20;;;0.70;;
57826;SDS011;43656;57.746;11.780;2023-04-28T04:41:19;4.50;;;1.00;;
57826;SDS011;43656;57.746;11.780;2023-04-28T04:43:45;3.55;;;0.88;;
57826;SDS011;43656;57.746;11.780;2023-04-28T04:46:12;5.00;;;0.90;;
57826;SDS011;43656;57.746;11.780;2023-04-28T04:48:37;3.45;;;1.00;;
57826;SDS011;43656;57.746;11.780;2023-04-28T04:51:03;2.97;;;0.82;;
57826;SDS011;43656;57.746;11.780;2023-04-28T04:53:28;4.60;;;1.00;;
57826;SDS011;43656;57.746;11.780;2023-04-28T04:55:54;5.53;;;1.42;;
57826;SDS011;43656;57.746;11.780;2023-04-28T04:58:20;7.07;;;1.05;;
57826;SDS011;43656;57.746;11.780;2023-04-28T05:00:45;5.38;;;0.93;;
57826;SDS011;43656;57.746;11.780;2023-04-28T05:03:11;4.05;;;0.90;;
57826;SDS011;43656;57.746;11.780;2023-04-28T05:05:36;3.47;;;0.80;;
57826;SDS011;43656;57.746;11.780;2023-04-28T05:08:01;3.80;;;1.00;;
57826;SDS011;43656;57.746;11.780;2023-04-28T05:10:27;4.20;;;0.90;;
57826;SDS011;43656;57.746;11.780;2023-04-28T05:12:53;3.35;;;0.93;;
57826;SDS011;43656;57.746;11.780;2023-04-28T05:15:18;4.45;;;0.90;;
57826;SDS011;43656;57.746;11.780;2023-04-28T05:17:44;4.80;;;0.95;;
57826;SDS011;43656;57.746;11.780;2023-04-28T05:20:09;3.88;;;0.70;;
57826;SDS011;43656;57.746;11.780;2023-04-28T05:22:35;4.90;;;0.90;;
57826;SDS011;43656;57.746;11.780;2023-04-28T05:25:01;4.40;;;1.10;;
57826;SDS011;43656;57.746;11.780;2023-04-28T05:27:26;4.75;;;1.20;;
57826;SDS011;43656;57.746;11.780;2023-04-28T05:29:52;3.75;;;1.10;;
57826;SDS011;43656;57.746;11.780;2023-04-28T05:32:17;3.72;;;0.93;;
57826;SDS011;43656;57.746;11.780;2023-04-28T05:34:43;2.65;;;0.80;;
57826;SDS011;43656;57.746;11.780;2023-04-28T05:37:08;2.65;;;0.80;;
57826;SDS011;43656;57.746;11.780;2023-04-28T05:39:34;3.67;;;1.00;;
57826;SDS011;43656;57.746;11.780;2023-04-28T05:42:00;3.80;;;0.95;;
57826;SDS011;43656;57.746;11.780;2023-04-28T05:44:25;7.93;;;1.15;;
57826;SDS011;43656;57.746;11.780;2023-04-28T05:46:50;5.90;;;1.23;;
57826;SDS011;43656;57.746;11.780;2023-04-28T05:49:16;5.22;;;1.08;;
57826;SDS011;43656;57.746;11.780;2023-04-28T05:51:41;6.88;;;0.90;;
57826;SDS011;43656;57.746;11.780;2023-04-28T05:54:08;9.60;;;1.10;;
57826;SDS011;43656;57.746;11.780;2023-04-28T05:56:33;3.28;;;1.00;;
57826;SDS011;43656;57.746;11.780;2023-04-28T05:58:59;4.03;;;1.23;;
57826;SDS011;43656;57.746;11.780;2023-04-28T06:01:28;3.10;;;0.80;;
57826;SDS011;43656;57.746;11.780;2023-04-28T06:03:54;4.50;;;0.90;;
57826;SDS011;43656;57.746;11.780;2023-04-28T06:06:21;1.83;;;0.90;;
57826;SDS011;43656;57.746;11.780;2023-04-28T06:08:47;10.10;;;1.02;;
57826;SDS011;43656;57.746;11.780;2023-04-28T06:11:12;2.72;;;1.08;;
57826;SDS011;43656;57.746;11.780;2023-04-28T06:13:38;2.97;;;0.80;;
57826;SDS011;43656;57.746;11.780;2023-04-28T06:16:03;5.55;;;1.02;;
57826;SDS011;43656;57.746;11.780;2023-04-28T06:18:29;4.15;;;0.90;;
57826;SDS011;43656;57.746;11.780;2023-04-28T06:20:56;3.92;;;0.88;;
57826;SDS011;43656;57.746;11.780;2023-04-28T06:23:22;4.18;;;1.20;;
57826;SDS011;43656;57.746;11.780;2023-04-28T06:25:48;2.63;;;1.00;;
57826;SDS011;43656;57.746;11.780;2023-04-28T06:28:14;3.63;;;0.85;;
57826;SDS011;43656;57.746;11.780;2023-04-28T06:30:39;3.47;;;1.00;;
57826;SDS011;43656;57.746;11.780;2023-04-28T06:33:05;4.72;;;1.23;;
57826;SDS011;43656;57.746;11.780;2023-04-28T06:35:31;3.00;;;1.00;;
57826;SDS011;43656;57.746;11.780;2023-04-28T06:38:00;1.55;;;0.75;;
57826;SDS011;43656;57.746;11.780;2023-04-28T06:40:26;3.05;;;0.80;;
57826;SDS011;43656;57.746;11.780;2023-04-28T06:42:51;3.85;;;0.80;;
57826;SDS011;43656;57.746;11.780;2023-04-28T06:45:17;1.70;;;0.60;;
57826;SDS011;43656;57.746;11.780;2023-04-28T06:47:42;4.68;;;1.00;;
57826;SDS011;43656;57.746;11.780;2023-04-28T06:50:09;3.13;;;0.80;;
57826;SDS011;43656;57.746;11.780;2023-04-28T06:52:34;3.05;;;1.08;;
57826;SDS011;43656;57.746;11.780;2023-04-28T06:55:00;3.53;;;0.63;;
57826;SDS011;43656;57.746;11.780;2023-04-28T06:57:25;5.82;;;0.73;;
57826;SDS011;43656;57.746;11.780;2023-04-28T06:59:51;2.10;;;0.60;;
57826;SDS011;43656;57.746;11.780;2023-04-28T07:02:16;1.20;;;0.55;;
57826;SDS011;43656;57.746;11.780;2023-04-28T07:04:42;1.35;;;0.60;;
57826;SDS011;43656;57.746;11.780;2023-04-28T07:07:07;1.63;;;0.60;;
57826;SDS011;43656;57.746;11.780;2023-04-28T07:09:34;4.43;;;0.60;;
57826;SDS011;43656;57.746;11.780;2023-04-28T07:11:59;1.15;;;0.65;;
57826;SDS011;43656;57.746;11.780;2023-04-28T07:14:25;1.95;;;0.60;;
57826;SDS011;43656;57.746;11.780;2023-04-28T07:16:51;4.60;;;0.90;;
57826;SDS011;43656;57.746;11.780;2023-04-28T07:19:16;2.17;;;0.60;;
57826;SDS011;43656;57.746;11.780;2023-04-28T07:21:41;2.13;;;0.73;;
57826;SDS011;43656;57.746;11.780;2023-04-28T07:24:07;2.72;;;0.70;;
57826;SDS011;43656;57.746;11.780;2023-04-28T07:26:32;2.55;;;0.68;;
57826;SDS011;43656;57.746;11.780;2023-04-28T07:28:58;1.23;;;0.70;;
57826;SDS011;43656;57.746;11.780;2023-04-28T07:31:23;1.20;;;0.50;;
57826;SDS011;43656;57.746;11.780;2023-04-28T07:33:48;2.50;;;0.65;;
57826;SDS011;43656;57.746;11.780;2023-04-28T07:36:14;3.92;;;1.00;;
57826;SDS011;43656;57.746;11.780;2023-04-28T07:38:40;1.65;;;0.70;;
57826;SDS011;43656;57.746;11.780;2023-04-28T07:41:05;5.40;;;0.98;;
57826;SDS011;43656;57.746;11.780;2023-04-28T07:43:31;1.50;;;0.60;;
57826;SDS011;43656;57.746;11.780;2023-04-28T07:45:56;4.95;;;0.80;;
57826;SDS011;43656;57.746;11.780;2023-04-28T07:48:23;2.28;;;0.80;;
57826;SDS011;43656;57.746;11.780;2023-04-28T07:50:48;2.58;;;0.80;;
57826;SDS011;43656;57.746;11.780;2023-04-28T07:53:14;1.35;;;0.50;;
57826;SDS011;43656;57.746;11.780;2023-04-28T07:55:39;2.70;;;0.90;;
57826;SDS011;43656;57.746;11.780;2023-04-28T07:58:08;3.38;;;0.80;;
57826;SDS011;43656;57.746;11.780;2023-04-28T08:00:34;2.03;;;0.90;;
57826;SDS011;43656;57.746;11.780;2023-04-28T08:03:00;1.92;;;0.70;;
57826;SDS011;43656;57.746;11.780;2023-04-28T08:05:25;2.28;;;0.77;;
57826;SDS011;43656;57.746;11.780;2023-04-28T08:07:51;1.40;;;0.75;;
57826;SDS011;43656;57.746;11.780;2023-04-28T08:10:16;4.00;;;0.75;;
57826;SDS011;43656;57.746;11.780;2023-04-28T08:12:42;2.95;;;0.90;;
57826;SDS011;43656;57.746;11.780;2023-04-28T08:15:09;1.33;;;0.60;;
57826;SDS011;43656;57.746;11.780;2023-04-28T08:17:34;2.67;;;0.77;;
57826;SDS011;43656;57.746;11.780;2023-04-28T08:20:00;3.50;;;0.70;;
57826;SDS011;43656;57.746;11.780;2023-04-28T08:22:25;4.05;;;0.82;;
57826;SDS011;43656;57.746;11.780;2023-04-28T08:24:51;6.95;;;1.40;;
57826;SDS011;43656;57.746;11.780;2023-04-28T08:27:16;1.20;;;0.90;;
57826;SDS011;43656;57.746;11.780;2023-04-28T08:29:42;3.90;;;0.90;;
57826;SDS011;43656;57.746;11.780;2023-04-28T08:32:09;4.35;;;0.82;;
57826;SDS011;43656;57.746;11.780;2023-04-28T08:34:34;4.53;;;1.02;;
57826;SDS011;43656;57.746;11.780;2023-04-28T08:37:00;1.52;;;0.70;;
57826;SDS011;43656;57.746;11.780;2023-04-28T08:39:26;3.17;;;0.75;;
57826;SDS011;43656;57.746;11.780;2023-04-28T08:41:52;3.47;;;0.90;;
57826;SDS011;43656;57.746;11.780;2023-04-28T08:44:18;2.00;;;0.63;;
57826;SDS011;43656;57.746;11.780;2023-04-28T08:46:44;2.97;;;0.80;;
57826;SDS011;43656;57.746;11.780;2023-04-28T08:49:12;3.78;;;0.80;;
57826;SDS011;43656;57.746;11.780;2023-04-28T08:51:50;3.08;;;0.70;;
57826;SDS011;43656;57.746;11.780;2023-04-28T08:54:23;2.28;;;0.70;;
57826;SDS011;43656;57.746;11.780;2023-04-28T08:56:54;2.97;;;0.90;;
57826;SDS011;43656;57.746;11.780;2023-04-28T08:59:21;4.25;;;1.00;;
57826;SDS011;43656;57.746;11.780;2023-04-28T09:01:49;3.65;;;0.88;;
57826;SDS011;43656;57.746;11.780;2023-04-28T09:04:15;4.65;;;0.70;;
57826;SDS011;43656;57.746;11.780;2023-04-28T09:06:41;1.75;;;0.63;;
57826;SDS011;43656;57.746;11.780;2023-04-28T09:09:26;2.80;;;0.90;;
57826;SDS011;43656;57.746;11.780;2023-04-28T09:11:58;4.20;;;0.82;;
57826;SDS011;43656;57.746;11.780;2023-04-28T09:14:28;2.85;;;0.70;;
57826;SDS011;43656;57.746;11.780;2023-04-28T09:16:54;3.17;;;0.80;;
57826;SDS011;43656;57.746;11.780;2023-04-28T09:19:20;4.80;;;0.90;;
57826;SDS011;43656;57.746;11.780;2023-04-28T09:21:47;3.85;;;0.90;;
57826;SDS011;43656;57.746;11.780;2023-04-28T09:26:59;2.30;;;0.45;;
57826;SDS011;43656;57.746;11.780;2023-04-28T09:29:26;1.45;;;0.60;;
57826;SDS011;43656;57.746;11.780;2023-04-28T09:31:52;2.50;;;0.68;;
57826;SDS011;43656;57.746;11.780;2023-04-28T09:34:19;3.70;;;0.90;;
57826;SDS011;43656;57.746;11.780;2023-04-28T09:36:46;4.32;;;0.90;;
57826;SDS011;43656;57.746;11.780;2023-04-28T09:39:11;2.50;;;0.65;;
57826;SDS011;43656;57.746;11.780;2023-04-28T09:41:41;2.28;;;0.88;;
57826;SDS011;43656;57.746;11.780;2023-04-28T09:44:17;2.45;;;0.80;;
57826;SDS011;43656;57.746;11.780;2023-04-28T09:46:46;3.22;;;0.90;;
57826;SDS011;43656;57.746;11.780;2023-04-28T09:49:12;2.55;;;0.50;;
57826;SDS011;43656;57.746;11.780;2023-04-28T09:51:38;2.88;;;0.80;;
57826;SDS011;43656;57.746;11.780;2023-04-28T09:54:04;1.58;;;0.68;;
57826;SDS011;43656;57.746;11.780;2023-04-28T09:56:31;0.88;;;0.52;;
57826;SDS011;43656;57.746;11.780;2023-04-28T09:58:58;1.83;;;0.70;;
57826;SDS011;43656;57.746;11.780;2023-04-28T10:01:32;2.10;;;0.70;;
57826;SDS011;43656;57.746;11.780;2023-04-28T10:04:03;2.70;;;0.90;;
57826;SDS011;43656;57.746;11.780;2023-04-28T10:06:28;1.75;;;0.63;;
57826;SDS011;43656;57.746;11.780;2023-04-28T10:08:54;2.47;;;0.60;;
57826;SDS011;43656;57.746;11.780;2023-04-28T10:11:21;1.95;;;0.65;;
57826;SDS011;43656;57.746;11.780;2023-04-28T10:13:49;2.58;;;0.80;;
57826;SDS011;43656;57.746;11.780;2023-04-28T10:16:15;3.42;;;0.98;;
57826;SDS011;43656;57.746;11.780;2023-04-28T10:18:41;3.38;;;0.60;;
57826;SDS011;43656;57.746;11.780;2023-04-28T10:21:08;2.58;;;0.75;;
57826;SDS011;43656;57.746;11.780;2023-04-28T10:27:14;1.92;;;0.60;;
57826;SDS011;43656;57.746;11.780;2023-04-28T10:29:31;4.07;;;0.82;;
57826;SDS011;43656;57.746;11.780;2023-04-28T10:34:44;3.95;;;0.70;;
57826;SDS011;43656;57.746;11.780;2023-04-28T10:37:09;1.60;;;0.65;;
57826;SDS011;43656;57.746;11.780;2023-04-28T10:39:35;1.98;;;0.65;;
57826;SDS011;43656;57.746;11.780;2023-04-28T10:42:01;1.35;;;0.50;;
57826;SDS011;43656;57.746;11.780;2023-04-28T10:55:29;2.00;;;0.63;;
57826;SDS011;43656;57.746;11.780;2023-04-28T11:00:44;4.22;;;0.90;;
57826;SDS011;43656;57.746;11.780;2023-04-28T11:07:08;2.38;;;0.77;;
57826;SDS011;43656;57.746;11.780;2023-04-28T11:16:47;2.92;;;0.73;;
57826;SDS011;43656;57.746;11.780;2023-04-28T11:19:18;2.25;;;0.60;;
57826;SDS011;43656;57.746;11.780;2023-04-28T11:21:45;2.38;;;0.65;;
57826;SDS011;43656;57.746;11.780;2023-04-28T11:24:12;1.48;;;0.60;;
57826;SDS011;43656;57.746;11.780;2023-04-28T11:26:37;1.60;;;0.65;;
57826;SDS011;43656;57.746;11.780;2023-04-28T11:29:03;1.52;;;0.45;;
57826;SDS011;43656;57.746;11.780;2023-04-28T11:31:28;1.08;;;0.40;;
57826;SDS011;43656;57.746;11.780;2023-04-28T11:34:08;1.52;;;0.57;;
57826;SDS011;43656;57.746;11.780;2023-04-28T11:36:41;1.40;;;0.45;;
57826;SDS011;43656;57.746;11.780;2023-04-28T11:39:10;1.52;;;0.50;;
57826;SDS011;43656;57.746;11.780;2023-04-28T11:41:37;1.75;;;0.40;;
57826;SDS011;43656;57.746;11.780;2023-04-28T11:46:44;4.88;;;0.52;;
57826;SDS011;43656;57.746;11.780;2023-04-28T11:51:41;1.88;;;0.55;;
57826;SDS011;43656;57.746;11.780;2023-04-28T11:54:09;1.70;;;0.50;;
57826;SDS011;43656;57.746;11.780;2023-04-28T11:56:45;3.00;;;0.60;;
57826;SDS011;43656;57.746;11.780;2023-04-28T11:59:11;1.65;;;0.52;;
57826;SDS011;43656;57.746;11.780;2023-04-28T12:04:10;2.55;;;0.52;;
57826;SDS011;43656;57.746;11.780;2023-04-28T12:06:37;2.53;;;0.60;;
57826;SDS011;43656;57.746;11.780;2023-04-28T12:09:16;2.47;;;0.52;;
57826;SDS011;43656;57.746;11.780;2023-04-28T12:11:52;1.90;;;0.65;;
57826;SDS011;43656;57.746;11.780;2023-04-28T12:14:21;1.33;;;0.55;;
57826;SDS011;43656;57.746;11.780;2023-04-28T12:16:48;1.25;;;0.40;;
57826;SDS011;43656;57.746;11.780;2023-04-28T12:19:14;1.83;;;0.50;;
57826;SDS011;43656;57.746;11.780;2023-04-28T12:21:41;1.42;;;0.50;;
57826;SDS011;43656;57.746;11.780;2023-04-28T12:24:16;2.10;;;0.52;;
57826;SDS011;43656;57.746;11.780;2023-04-28T12:26:46;2.35;;;0.32;;
57826;SDS011;43656;57.746;11.780;2023-04-28T12:32:07;1.90;;;0.60;;
57826;SDS011;43656;57.746;11.780;2023-04-28T12:34:33;1.88;;;0.47;;
57826;SDS011;43656;57.746;11.780;2023-04-28T12:37:00;1.33;;;0.60;;
57826;SDS011;43656;57.746;11.780;2023-04-28T12:39:27;1.08;;;0.32;;
57826;SDS011;43656;57.746;11.780;2023-04-28T12:41:53;2.10;;;0.70;;
57826;SDS011;43656;57.746;11.780;2023-04-28T12:44:23;1.58;;;0.50;;
57826;SDS011;43656;57.746;11.780;2023-04-28T12:46:50;1.48;;;0.68;;
57826;SDS011;43656;57.746;11.780;2023-04-28T12:49:15;2.60;;;0.65;;
57826;SDS011;43656;57.746;11.780;2023-04-28T12:51:41;3.08;;;0.85;;
57826;SDS011;43656;57.746;11.780;2023-04-28T12:54:06;1.52;;;0.40;;
57826;SDS011;43656;57.746;11.780;2023-04-28T12:56:32;1.25;;;0.50;;
57826;SDS011;43656;57.746;11.780;2023-04-28T12:58:58;2.10;;;0.70;;
57826;SDS011;43656;57.746;11.780;2023-04-28T13:01:26;2.85;;;0.55;;
57826;SDS011;43656;57.746;11.780;2023-04-28T13:03:52;3.05;;;0.57;;
57826;SDS011;43656;57.746;11.780;2023-04-28T13:06:18;1.48;;;0.50;;
57826;SDS011;43656;57.746;11.780;2023-04-28T13:08:44;3.22;;;0.55;;
57826;SDS011;43656;57.746;11.780;2023-04-28T13:11:10;1.65;;;0.70;;
57826;SDS011;43656;57.746;11.780;2023-04-28T13:13:35;2.80;;;0.52;;
57826;SDS011;43656;57.746;11.780;2023-04-28T13:16:01;1.95;;;0.60;;
57826;SDS011;43656;57.746;11.780;2023-04-28T13:18:28;1.05;;;0.50;;
57826;SDS011;43656;57.746;11.780;2023-04-28T13:20:56;2.67;;;0.60;;
57826;SDS011;43656;57.746;11.780;2023-04-28T13:23:22;1.05;;;0.52;;
57826;SDS011;43656;57.746;11.780;2023-04-28T13:25:49;3.45;;;0.50;;
57826;SDS011;43656;57.746;11.780;2023-04-28T13:28:14;2.28;;;0.70;;
57826;SDS011;43656;57.746;11.780;2023-04-28T13:30:40;2.30;;;0.60;;
57826;SDS011;43656;57.746;11.780;2023-04-28T13:33:05;1.63;;;0.50;;
57826;SDS011;43656;57.746;11.780;2023-04-28T13:35:31;1.77;;;0.60;;
57826;SDS011;43656;57.746;11.780;2023-04-28T13:37:57;2.00;;;0.73;;
57826;SDS011;43656;57.746;11.780;2023-04-28T13:40:29;2.35;;;0.60;;
57826;SDS011;43656;57.746;11.780;2023-04-28T13:42:55;2.85;;;0.82;;
57826;SDS011;43656;57.746;11.780;2023-04-28T13:45:21;2.25;;;0.60;;
57826;SDS011;43656;57.746;11.780;2023-04-28T13:47:46;2.50;;;0.52;;
57826;SDS011;43656;57.746;11.780;2023-04-28T13:50:12;3.20;;;0.88;;
57826;SDS011;43656;57.746;11.780;2023-04-28T13:52:38;2.67;;;0.60;;
57826;SDS011;43656;57.746;11.780;2023-04-28T13:55:04;2.47;;;0.90;;
57826;SDS011;43656;57.746;11.780;2023-04-28T13:57:30;2.58;;;0.63;;
57826;SDS011;43656;57.746;11.780;2023-04-28T13:59:55;2.20;;;0.70;;
57826;SDS011;43656;57.746;11.780;2023-04-28T14:02:21;1.88;;;0.57;;
57826;SDS011;43656;57.746;11.780;2023-04-28T14:04:47;3.38;;;0.90;;
57826;SDS011;43656;57.746;11.780;2023-04-28T14:07:15;2.55;;;0.60;;
57826;SDS011;43656;57.746;11.780;2023-04-28T14:09:41;2.85;;;0.80;;
57826;SDS011;43656;57.746;11.780;2023-04-28T14:12:07;2.25;;;0.85;;
57826;SDS011;43656;57.746;11.780;2023-04-28T14:14:33;1.85;;;0.60;;
57826;SDS011;43656;57.746;11.780;2023-04-28T14:16:58;4.05;;;0.93;;
57826;SDS011;43656;57.746;11.780;2023-04-28T14:19:24;2.92;;;0.80;;
57826;SDS011;43656;57.746;11.780;2023-04-28T14:21:51;1.70;;;0.68;;
57826;SDS011;43656;57.746;11.780;2023-04-28T14:24:17;2.97;;;0.63;;
57826;SDS011;43656;57.746;11.780;2023-04-28T14:26:44;2.22;;;0.70;;
57826;SDS011;43656;57.746;11.780;2023-04-28T14:29:10;3.65;;;0.77;;
57826;SDS011;43656;57.746;11.780;2023-04-28T14:31:35;2.88;;;0.73;;
57826;SDS011;43656;57.746;11.780;2023-04-28T14:34:02;2.40;;;0.80;;
57826;SDS011;43656;57.746;11.780;2023-04-28T14:36:29;3.50;;;0.85;;
57826;SDS011;43656;57.746;11.780;2023-04-28T14:38:57;3.03;;;0.73;;
57826;SDS011;43656;57.746;11.780;2023-04-28T14:41:23;3.72;;;0.80;;
57826;SDS011;43656;57.746;11.780;2023-04-28T14:43:49;2.70;;;0.70;;
57826;SDS011;43656;57.746;11.780;2023-04-28T14:46:15;2.45;;;0.95;;
57826;SDS011;43656;57.746;11.780;2023-04-28T14:48:43;2.40;;;0.80;;
57826;SDS011;43656;57.746;11.780;2023-04-28T14:51:09;2.08;;;0.60;;
57826;SDS011;43656;57.746;11.780;2023-04-28T14:53:34;2.22;;;0.73;;
57826;SDS011;43656;57.746;11.780;2023-04-28T14:56:00;1.85;;;0.60;;
57826;SDS011;43656;57.746;11.780;2023-04-28T14:58:25;2.65;;;0.50;;
57826;SDS011;43656;57.746;11.780;2023-04-28T15:00:51;3.10;;;0.70;;
57826;SDS011;43656;57.746;11.780;2023-04-28T15:03:17;2.03;;;0.60;;
57826;SDS011;43656;57.746;11.780;2023-04-28T15:05:43;2.55;;;0.60;;
57826;SDS011;43656;57.746;11.780;2023-04-28T15:08:08;2.10;;;1.05;;
57826;SDS011;43656;57.746;11.780;2023-04-28T15:10:38;2.90;;;0.80;;
57826;SDS011;43656;57.746;11.780;2023-04-28T15:13:07;1.67;;;0.60;;